Entebbe, Uganda
Current Conditions -  °F | °C
As of 12:00 PM on Sunday 25 Jan 2015 (Local Time) from HUEN Reporting Station
Few Clouds Few Clouds  
Wind Chill: 25°   Ceiling: Unl
Heat Index: 26°   Visibility: 5mi
Dew Point: 19°   Wind: 8mph
Humidity: 69%   Direction: 200°SSW
Pressure: 30.06"   Gusts: NA
Location:  0.06°N, 32.46°E
Report Text: HUEN 250900Z 20007KT 8000 FEW023 FEW025CB 25/19 Q1018
Loading
Personal Weather Stations






























Interactive Weather Map New forecast layout! Learn more

10-Day Weather Forecast

Advertisements
Track Severe Weather on mobile